Time;durP1;ratioP1;P1;durP2;ratioP2;P2;SDS_P1;SDS_P2;PMS_P1;PMS_P2;Temp;Humidity;BMP_temperature;BMP_pressure;BME280_temperature;BME280_humidity;BME280_pressure;Samples;Min_cycle;Max_cycle;Signal;HPM_P1;HPM_P2
2021/04/20 00:04:50;;;;;;;52.23;29.23;;;;;;;5.62;100.00;98492.50;3669668;79;43704;-27
2021/04/20 00:09:56;;;;;;;56.77;31.53;;;;;;;5.59;100.00;98491.41;3731340;78;43325;-27
2021/04/20 00:15:02;;;;;;;56.00;30.90;;;;;;;5.63;100.00;98483.04;3735100;78;43636;-30
2021/04/20 00:20:13;;;;;;;61.73;33.17;;;;;;;5.80;100.00;98474.94;3731991;79;43690;-29
2021/04/20 00:25:19;;;;;;;64.50;33.67;;;;;;;5.90;100.00;98468.30;3670650;79;43665;-27
2021/04/20 00:30:26;;;;;;;68.40;34.67;;;;;;;5.94;100.00;98468.91;3730485;78;44503;-27
2021/04/20 00:35:32;;;;;;;68.50;33.37;;;;;;;5.92;100.00;98454.82;3731487;78;43490;-27
2021/04/20 00:40:39;;;;;;;67.53;33.73;;;;;;;5.92;100.00;98449.47;3730603;78;44018;-28
2021/04/20 00:45:45;;;;;;;62.60;30.80;;;;;;;5.75;100.00;98425.02;3669509;79;43059;-29
2021/04/20 00:50:50;;;;;;;74.40;29.43;;;;;;;5.35;100.00;98406.52;3726962;79;43470;-29
2021/04/20 00:55:56;;;;;;;67.77;32.40;;;;;;;5.04;100.00;98408.20;3668960;79;43123;-28
2021/04/20 01:01:03;;;;;;;85.27;37.40;;;;;;;5.10;100.00;98398.38;3669553;79;44127;-28
2021/04/20 01:06:09;;;;;;;81.33;36.50;;;;;;;5.13;100.00;98407.44;3600501;81;44068;-28
2021/04/20 01:11:15;;;;;;;96.13;40.60;;;;;;;5.64;100.00;98409.04;3668517;79;44226;-28
2021/04/20 01:16:22;;;;;;;93.37;39.43;;;;;;;5.88;100.00;98404.74;3668719;79;44056;-28
2021/04/20 01:21:29;;;;;;;86.40;37.10;;;;;;;5.65;100.00;98408.06;3669518;79;43717;-28
2021/04/20 01:26:37;;;;;;;78.07;35.07;;;;;;;5.47;100.00;98411.30;3600535;81;44003;-28
2021/04/20 01:31:45;;;;;;;84.50;36.23;;;;;;;5.50;100.00;98413.72;3670414;79;43657;-28
2021/04/20 01:36:51;;;;;;;82.17;35.47;;;;;;;5.40;100.00;98404.79;3599993;81;43677;-28
2021/04/20 01:41:57;;;;;;;76.57;35.13;;;;;;;5.36;100.00;98400.66;3674938;79;44119;-28
2021/04/20 01:47:04;;;;;;;83.47;36.97;;;;;;;5.34;100.00;98398.14;3668893;79;44127;-28
2021/04/20 01:52:10;;;;;;;78.60;35.60;;;;;;;5.34;100.00;98395.97;3670971;79;43730;-28
2021/04/20 01:57:18;;;;;;;57.47;27.67;;;;;;;5.30;100.00;98390.51;3592078;81;44712;-27
2021/04/20 02:02:24;;;;;;;59.00;29.87;;;;;;;5.14;100.00;98387.77;3689791;79;43754;-28
2021/04/20 02:07:31;;;;;;;62.43;30.90;;;;;;;5.11;100.00;98402.74;3532258;82;44022;-27
2021/04/20 02:12:38;;;;;;;54.43;28.50;;;;;;;5.08;100.00;98400.31;3682176;80;44424;-27
2021/04/20 02:17:45;;;;;;;62.70;31.63;;;;;;;4.99;100.00;98393.07;3679599;79;44093;-27
2021/04/20 02:22:52;;;;;;;62.10;32.20;;;;;;;4.93;100.00;98399.77;3684892;80;44106;-27
2021/04/20 02:27:58;;;;;;;62.67;30.47;;;;;;;4.91;100.00;98403.04;3684179;80;44994;-28
2021/04/20 02:33:05;;;;;;;64.47;31.47;;;;;;;4.88;100.00;98407.29;3682721;79;43250;-28
2021/04/20 02:38:12;;;;;;;67.67;32.83;;;;;;;4.87;100.00;98409.13;3682523;79;43329;-27
2021/04/20 02:43:19;;;;;;;80.40;31.20;;;;;;;4.88;100.00;98405.95;3679754;80;44212;-28
2021/04/20 02:48:25;;;;;;;86.37;32.37;;;;;;;4.78;100.00;98412.05;3681166;79;43456;-27
2021/04/20 02:53:32;;;;;;;90.20;34.13;;;;;;;4.77;100.00;98417.02;3683365;79;44574;-28
2021/04/20 02:58:40;;;;;;;69.97;31.37;;;;;;;4.82;100.00;98415.81;3677368;79;43669;-28
2021/04/20 03:03:50;;;;;;;76.60;33.17;;;;;;;4.78;100.00;98411.19;3601450;81;43685;-28
2021/04/20 03:08:57;;;;;;;106.73;34.70;;;;;;;4.66;100.00;98401.03;3666285;79;44015;-28
2021/04/20 03:14:05;;;;;;;74.97;33.77;;;;;;;4.67;100.00;98393.39;3668086;79;43702;-28
2021/04/20 03:19:11;;;;;;;82.50;34.40;;;;;;;4.63;100.00;98391.47;3666662;78;127255;-28
2021/04/20 03:24:35;;;;;;;93.70;35.00;;;;;;;4.63;100.00;98394.13;3637758;80;43439;-28
2021/04/20 03:29:41;;;;;;;89.60;34.17;;;;;;;4.62;100.00;98377.76;3635022;80;44057;-28
2021/04/20 03:34:50;;;;;;;410.13;47.43;;;;;;;4.62;100.00;98383.56;3651153;80;43431;-25
2021/04/20 03:39:58;;;;;;;404.77;47.13;;;;;;;4.51;100.00;98384.45;3641878;81;43292;-30
2021/04/20 03:45:08;;;;;;;300.00;41.87;;;;;;;4.47;100.00;98369.65;3635727;80;43313;-24
2021/04/20 03:50:16;;;;;;;225.10;36.60;;;;;;;4.46;100.00;98367.48;3635734;80;43382;-25
2021/04/20 03:55:25;;;;;;;268.30;41.13;;;;;;;4.43;100.00;98362.86;3640101;80;44565;-25
2021/04/20 04:00:33;;;;;;;91.00;33.83;;;;;;;4.38;100.00;98367.23;3631578;80;44039;-25
2021/04/20 04:05:41;;;;;;;86.37;35.37;;;;;;;4.45;100.00;98362.25;3641830;80;43407;-25
2021/04/20 04:10:50;;;;;;;82.90;34.90;;;;;;;4.49;100.00;98363.71;3633342;81;43524;-25
2021/04/20 04:16:01;;;;;;;90.80;36.70;;;;;;;4.59;100.00;98375.33;3637779;80;44027;-25
2021/04/20 04:21:09;;;;;;;90.43;35.13;;;;;;;4.60;100.00;98381.03;3629049;81;43397;-25
2021/04/20 04:26:18;;;;;;;83.57;34.87;;;;;;;4.60;100.00;98374.83;3631832;80;44083;-25
2021/04/20 04:31:26;;;;;;;78.13;33.80;;;;;;;4.65;100.00;98380.66;3634078;80;44431;-25
2021/04/20 04:36:32;;;;;;;83.33;35.83;;;;;;;4.67;100.00;98377.38;3626683;81;43677;-25
2021/04/20 04:41:38;;;;;;;70.83;32.97;;;;;;;4.70;100.00;98381.14;3632776;80;43358;-25
2021/04/20 04:46:45;;;;;;;75.47;34.77;;;;;;;4.74;100.00;98380.40;3641139;80;43999;-25
2021/04/20 04:51:52;;;;;;;74.00;33.70;;;;;;;4.79;100.00;98376.85;3641381;80;43704;-25
2021/04/20 04:57:00;;;;;;;72.70;32.30;;;;;;;4.76;100.00;98359.78;3637972;81;44225;-25
2021/04/20 05:02:08;;;;;;;63.23;29.97;;;;;;;4.67;100.00;98358.70;3659962;79;44030;-25
2021/04/20 05:07:15;;;;;;;71.83;33.03;;;;;;;4.73;100.00;98373.36;3666788;80;42913;-25
2021/04/20 05:12:21;;;;;;;69.73;33.00;;;;;;;4.75;100.00;98384.27;3663576;80;43685;-25
2021/04/20 05:17:27;;;;;;;69.30;31.90;;;;;;;4.76;100.00;98397.14;3663290;79;43396;-25
2021/04/20 05:22:34;;;;;;;65.97;31.87;;;;;;;4.80;100.00;98398.56;3665896;80;44054;-25
2021/04/20 05:27:40;;;;;;;74.50;33.23;;;;;;;4.83;100.00;98401.46;3663331;80;43291;-25
2021/04/20 05:32:50;;;;;;;69.47;32.63;;;;;;;4.88;100.00;98412.62;3667244;80;43725;-25
2021/04/20 05:37:54;;;;;;;77.30;33.77;;;;;;;4.97;100.00;98413.70;3663773;80;44505;-25
2021/04/20 05:43:00;;;;;;;74.87;32.50;;;;;;;5.06;100.00;98404.42;3665745;80;43979;-25
2021/04/20 05:48:07;;;;;;;74.77;33.53;;;;;;;5.15;100.00;98406.00;3668562;80;43686;-25
2021/04/20 05:53:13;;;;;;;78.37;34.27;;;;;;;5.24;100.00;98404.72;3661867;79;42312;-25
2021/04/20 05:58:19;;;;;;;79.07;35.60;;;;;;;5.28;100.00;98403.14;3667209;79;43733;-25
2021/04/20 06:03:26;;;;;;;71.50;34.03;;;;;;;5.31;100.00;98394.88;3679770;79;43365;-25
2021/04/20 06:08:34;;;;;;;72.67;35.07;;;;;;;5.29;100.00;98399.50;3689401;79;43678;-25
2021/04/20 06:13:41;;;;;;;72.33;34.80;;;;;;;5.36;100.00;98398.00;3688301;79;43472;-25
2021/04/20 06:18:47;;;;;;;68.10;32.30;;;;;;;5.49;100.00;98404.01;3689814;79;44067;-25
2021/04/20 06:23:53;;;;;;;66.07;31.97;;;;;;;5.61;100.00;98402.61;3688413;79;43309;-25
2021/04/20 06:28:59;;;;;;;68.13;33.70;;;;;;;5.73;100.00;98406.08;3690341;79;44067;-25
2021/04/20 06:34:06;;;;;;;70.20;33.33;;;;;;;5.89;100.00;98410.45;3689708;79;44791;-25
2021/04/20 06:39:14;;;;;;;66.23;32.53;;;;;;;6.02;100.00;98403.61;3685530;80;44459;-25
2021/04/20 06:44:24;;;;;;;61.33;31.27;;;;;;;6.01;100.00;98401.41;3689042;79;43398;-25
2021/04/20 06:49:33;;;;;;;60.80;30.57;;;;;;;6.17;100.00;98400.91;3686409;79;44089;-25
2021/04/20 06:54:45;;;;;;;63.10;31.90;;;;;;;6.22;100.00;98405.03;3688009;79;44030;-25
2021/04/20 06:59:55;;;;;;;63.30;32.47;;;;;;;6.22;100.00;98397.00;3682380;79;43706;-25
2021/04/20 07:05:02;;;;;;;63.27;32.83;;;;;;;6.30;100.00;98397.17;3640320;80;44260;-25
2021/04/20 07:10:13;;;;;;;55.57;30.20;;;;;;;6.36;100.00;98397.12;3638180;81;44579;-25
2021/04/20 07:15:21;;;;;;;60.13;30.70;;;;;;;6.35;100.00;98399.47;3688894;79;42865;-25
2021/04/20 07:20:35;;;;;;;59.13;31.13;;;;;;;6.36;100.00;98392.63;3725201;77;44500;-25
2021/04/20 07:25:50;;;;;;;64.50;32.83;;;;;;;6.41;100.00;98395.73;3718706;79;43734;-25
2021/04/20 07:31:05;;;;;;;60.70;32.17;;;;;;;6.38;100.00;98388.00;3726285;78;43718;-25
2021/04/20 07:36:15;;;;;;;65.70;32.80;;;;;;;6.42;100.00;98396.59;3715324;79;43445;-25
2021/04/20 07:41:24;;;;;;;58.93;31.33;;;;;;;6.46;100.00;98392.67;3715006;79;43079;-25
2021/04/20 07:46:33;;;;;;;63.93;32.67;;;;;;;6.54;100.00;98394.64;3721208;78;43519;-25
2021/04/20 07:51:45;;;;;;;64.33;33.23;;;;;;;6.53;100.00;98390.27;3724191;79;44666;-25
2021/04/20 07:56:54;;;;;;;65.57;33.53;;;;;;;6.57;100.00;98387.22;3721475;79;44059;-25
2021/04/20 08:02:03;;;;;;;67.80;34.60;;;;;;;6.65;100.00;98387.84;3642246;80;43664;-25
2021/04/20 08:07:12;;;;;;;70.60;35.20;;;;;;;6.77;100.00;98393.44;3730735;78;44080;-25
2021/04/20 08:12:21;;;;;;;62.03;32.67;;;;;;;6.90;100.00;98392.34;3735906;79;44796;-25
2021/04/20 08:17:30;;;;;;;65.50;32.57;;;;;;;7.06;100.00;98393.13;3646570;80;43174;-25
2021/04/20 08:22:37;;;;;;;60.70;33.07;;;;;;;7.16;100.00;98394.48;3658834;80;43690;-25
2021/04/20 08:27:48;;;;;;;61.10;32.13;;;;;;;7.24;100.00;98396.82;3728840;78;43485;-25
2021/04/20 08:32:55;;;;;;;67.23;33.87;;;;;;;7.31;100.00;98398.45;3590712;81;44736;-25
2021/04/20 08:38:31;;;;;;;67.33;34.00;;;;;;;7.32;100.00;98387.22;3731694;78;42940;-25
2021/04/20 08:43:43;;;;;;;61.73;33.17;;;;;;;7.28;100.00;98381.30;3733367;77;42894;-25
2021/04/20 08:48:54;;;;;;;59.90;32.37;;;;;;;7.28;100.00;98381.81;3652742;80;44051;-25
2021/04/20 08:54:17;;;;;;;65.50;33.20;;;;;;;7.33;100.00;98384.42;3739215;78;43425;-25
2021/04/20 08:59:56;;;;;;;61.30;32.13;;;;;;;7.50;100.00;98382.85;3647737;80;44125;-25
2021/04/20 09:05:22;;;;;;;63.30;34.13;;;;;;;7.74;100.00;98380.69;3606860;81;44121;-24
2021/04/20 09:10:33;;;;;;;58.53;31.70;;;;;;;7.93;100.00;98376.64;3755934;77;43520;-25
2021/04/20 09:15:42;;;;;;;58.30;32.07;;;;;;;8.09;100.00;98377.84;3750863;77;42744;-25
2021/04/20 09:21:01;;;;;;;59.23;32.17;;;;;;;8.32;100.00;98381.84;3674939;80;73135;-25
2021/04/20 09:26:14;;;;;;;58.47;31.73;;;;;;;8.46;100.00;98376.98;3677178;80;43569;-25
2021/04/20 09:31:22;;;;;;;54.43;30.90;;;;;;;8.64;100.00;98379.23;3754545;78;75280;-25
2021/04/20 09:36:29;;;;;;;53.53;31.73;;;;;;;8.83;100.00;98373.41;3762883;77;43400;-25
2021/04/20 09:41:38;;;;;;;50.90;30.70;;;;;;;8.99;100.00;98375.42;3758715;77;44079;-25
2021/04/20 09:47:03;;;;;;;50.57;30.03;;;;;;;9.28;100.00;98380.23;3757125;77;43451;-25
2021/04/20 09:52:13;;;;;;;53.90;31.73;;;;;;;9.46;100.00;98373.50;3756738;78;43651;-25
2021/04/20 09:57:21;;;;;;;48.65;29.95;;;;;;;9.55;100.00;98374.77;3679196;80;42977;-25
2021/04/20 10:03:10;;;;;;;47.93;30.20;;;;;;;9.73;100.00;98375.22;3752387;77;44105;-27
2021/04/20 10:08:27;;;;;;;47.60;29.00;;;;;;;9.89;100.00;98373.65;3742370;78;45287;-25
2021/04/20 10:13:58;;;;;;;48.30;29.37;;;;;;;10.04;100.00;98369.38;3738257;77;43173;-25
2021/04/20 10:19:10;;;;;;;49.85;30.68;;;;;;;10.21;100.00;98373.49;3733604;78;44063;-25
2021/04/20 10:24:21;;;;;;;47.20;29.63;;;;;;;10.35;100.00;98364.82;3738088;78;43712;-26
2021/04/20 10:29:31;;;;;;;46.47;29.47;;;;;;;10.43;100.00;98366.22;3742075;78;43119;-25
2021/04/20 10:34:37;;;;;;;45.58;29.32;;;;;;;10.67;100.00;98360.59;3739516;78;43304;-25
2021/04/20 10:39:49;;;;;;;44.88;28.70;;;;;;;10.95;100.00;98353.08;3737127;78;43718;-25
2021/04/20 10:44:57;;;;;;;34.15;22.98;;;;;;;11.20;100.00;98349.59;3736308;78;42935;-26
2021/04/20 10:50:04;;;;;;;37.95;24.80;;;;;;;11.32;100.00;98337.47;3726521;79;43726;-26
2021/04/20 10:55:12;;;;;;;37.45;24.52;;;;;;;11.73;100.00;98342.00;3733997;78;44054;-26
2021/04/20 11:00:20;;;;;;;29.82;20.60;;;;;;;11.83;100.00;98328.30;3733961;78;44459;-26
2021/04/20 11:05:28;;;;;;;25.08;17.98;;;;;;;12.14;100.00;98326.25;3727549;78;44054;-26
2021/04/20 11:10:38;;;;;;;26.25;18.52;;;;;;;12.13;100.00;98325.39;3729008;79;43673;-26
2021/04/20 11:15:47;;;;;;;31.27;18.52;;;;;;;12.40;100.00;98319.22;3723209;79;43734;-26
2021/04/20 11:20:54;;;;;;;25.62;17.40;;;;;;;12.54;100.00;98320.84;3731573;78;43682;-26
2021/04/20 11:26:05;;;;;;;24.70;16.85;;;;;;;12.85;100.00;98314.09;3727628;78;43375;-26
2021/04/20 11:31:14;;;;;;;24.77;16.37;;;;;;;13.00;100.00;98306.53;3728439;78;44017;-26
2021/04/20 11:36:23;;;;;;;22.52;16.32;;;;;;;12.94;100.00;98306.25;3726053;79;43713;-26
2021/04/20 11:41:32;;;;;;;24.05;16.25;;;;;;;13.15;100.00;98297.16;3728247;79;43683;-26
2021/04/20 11:46:41;;;;;;;20.97;15.48;;;;;;;12.85;100.00;98299.22;3729961;78;42701;-26
2021/04/20 11:51:50;;;;;;;24.25;15.72;;;;;;;12.99;100.00;98296.77;3732302;78;44058;-26
2021/04/20 11:57:02;;;;;;;23.83;15.18;;;;;;;13.18;100.00;98294.92;3733815;77;44165;-26
2021/04/20 12:02:10;;;;;;;21.20;14.53;;;;;;;13.33;100.00;98291.43;3736126;78;43454;-26
2021/04/20 12:07:18;;;;;;;17.75;12.00;;;;;;;14.00;100.00;98281.66;3740876;78;43386;-27
2021/04/20 12:12:29;;;;;;;17.27;11.20;;;;;;;14.45;100.00;98266.19;3733793;78;43029;-27
2021/04/20 12:17:39;;;;;;;19.50;13.68;;;;;;;14.66;100.00;98269.13;3585112;81;43537;-27
2021/04/20 12:22:46;;;;;;;17.02;12.98;;;;;;;14.38;100.00;98262.56;3749761;78;43413;-27
2021/04/20 12:27:55;;;;;;;18.15;13.38;;;;;;;14.62;100.00;98266.80;3745204;78;43499;-28
2021/04/20 12:33:02;;;;;;;19.15;13.88;;;;;;;14.64;100.00;98266.62;3745486;78;44066;-27
2021/04/20 12:38:09;;;;;;;20.82;15.05;;;;;;;14.47;97.27;98250.58;3749106;78;43730;-27
2021/04/20 12:43:15;;;;;;;18.85;14.00;;;;;;;14.85;100.00;98248.72;3744236;78;45130;-27
2021/04/20 12:48:28;;;;;;;22.00;15.35;;;;;;;15.38;93.58;98242.40;3754647;78;43016;-27
2021/04/20 12:53:35;;;;;;;22.77;15.23;;;;;;;15.43;98.61;98235.55;3755284;77;43985;-27
2021/04/20 12:58:43;;;;;;;20.40;13.98;;;;;;;15.86;88.83;98235.44;3754699;78;44019;-27
2021/04/20 13:03:52;;;;;;;21.73;15.70;;;;;;;16.02;85.54;98228.33;3758022;78;44018;-27
2021/04/20 13:08:59;;;;;;;19.10;15.05;;;;;;;16.12;90.80;98226.58;3776598;78;43385;-27
2021/04/20 13:14:07;;;;;;;19.70;13.98;;;;;;;16.40;87.67;98216.68;3771575;77;43697;-27
2021/04/20 13:19:14;;;;;;;21.48;14.93;;;;;;;16.71;87.70;98213.39;3767010;78;44034;-27
2021/04/20 13:24:20;;;;;;;16.73;13.93;;;;;;;17.06;78.32;98205.09;3767493;78;43745;-27
2021/04/20 13:29:29;;;;;;;18.05;14.00;;;;;;;17.71;77.07;98198.98;3771078;78;43368;-27
2021/04/20 13:34:39;;;;;;;20.40;14.53;;;;;;;17.24;78.19;98205.00;3772355;78;43358;-27
2021/04/20 13:39:48;;;;;;;18.62;14.03;;;;;;;17.51;82.26;98192.20;3768009;77;44441;-27
2021/04/20 13:44:57;;;;;;;19.00;13.93;;;;;;;17.85;79.75;98190.77;3770282;77;43385;-27
2021/04/20 13:50:04;;;;;;;18.07;14.25;;;;;;;17.55;75.75;98181.70;3772468;78;42822;-27
2021/04/20 13:55:14;;;;;;;19.32;14.55;;;;;;;17.20;76.75;98177.38;3774757;77;43403;-26
2021/04/20 14:00:23;;;;;;;17.30;13.95;;;;;;;16.92;83.48;98190.62;3770360;77;45110;-27
2021/04/20 14:05:36;;;;;;;17.32;13.88;;;;;;;16.20;82.61;98179.37;3763445;77;43673;-27
2021/04/20 14:10:45;;;;;;;21.87;15.18;;;;;;;15.74;85.13;98170.47;3765921;78;43686;-27
2021/04/20 14:15:54;;;;;;;19.02;13.85;;;;;;;15.63;84.55;98167.28;3747408;78;43334;-26
2021/04/20 14:21:13;;;;;;;16.35;14.28;;;;;;;15.64;84.95;98160.81;3751596;77;43990;-26
2021/04/20 14:26:21;;;;;;;17.50;13.38;;;;;;;16.02;83.25;98164.98;3744620;77;42986;-27
2021/04/20 14:31:31;;;;;;;19.40;13.68;;;;;;;17.01;77.17;98157.27;3746941;77;43673;-27
2021/04/20 14:36:40;;;;;;;17.05;13.08;;;;;;;17.44;77.67;98148.31;3756827;77;43435;-27
2021/04/20 14:41:49;;;;;;;16.32;13.03;;;;;;;18.16;68.15;98148.31;3671730;79;44012;-27
2021/04/20 14:47:01;;;;;;;16.93;13.00;;;;;;;18.81;66.94;98145.09;3748797;78;44066;-26
2021/04/20 14:52:11;;;;;;;18.50;13.30;;;;;;;19.27;65.57;98148.52;3753714;77;43337;-25
2021/04/20 14:57:19;;;;;;;15.08;12.95;;;;;;;19.78;68.56;98147.89;3671443;79;43678;-26
2021/04/20 15:02:29;;;;;;;17.37;12.88;;;;;;;18.93;66.54;98144.16;3667892;79;43750;-27
2021/04/20 15:07:38;;;;;;;19.45;13.40;;;;;;;18.18;72.66;98142.95;3671649;79;43416;-27
2021/04/20 15:12:57;;;;;;;12.00;10.15;;;;;;;17.17;71.22;98141.03;3672958;79;44002;-27
2021/04/20 15:18:07;;;;;;;14.58;11.63;;;;;;;17.03;68.90;98143.44;3670538;79;44398;-26
2021/04/20 15:23:20;;;;;;;13.30;10.30;;;;;;;16.50;71.43;98153.22;3670804;79;43432;-26
2021/04/20 15:28:28;;;;;;;12.07;10.05;;;;;;;15.12;73.84;98156.70;3684228;79;44081;-26
2021/04/20 15:33:37;;;;;;;10.00;8.83;;;;;;;14.98;72.25;98182.39;3669686;79;43991;-26
2021/04/20 15:38:47;;;;;;;11.35;8.75;;;;;;;14.76;69.83;98168.00;3668069;79;44050;-27
2021/04/20 15:43:58;;;;;;;13.05;9.48;;;;;;;14.77;74.89;98166.44;3758708;78;43047;-27
2021/04/20 15:49:07;;;;;;;9.08;7.78;;;;;;;14.59;77.07;98169.57;3762303;78;43704;-28
2021/04/20 15:54:17;;;;;;;9.38;8.10;;;;;;;14.29;77.22;98165.63;3675452;80;43690;-27
2021/04/20 15:59:26;;;;;;;10.93;8.60;;;;;;;13.81;79.28;98176.95;3679589;79;43686;-27
2021/04/20 16:04:37;;;;;;;9.53;8.35;;;;;;;13.46;82.92;98174.47;3675410;79;43438;-27
2021/04/20 16:09:47;;;;;;;9.25;7.42;;;;;;;13.32;87.81;98177.47;3745946;77;43020;-27
2021/04/20 16:14:55;;;;;;;11.73;7.83;;;;;;;13.21;84.58;98173.34;3665656;79;43404;-27
2021/04/20 16:20:09;;;;;;;11.30;7.72;;;;;;;12.99;89.58;98186.73;3735611;78;44006;-27
2021/04/20 16:25:16;;;;;;;8.83;7.90;;;;;;;12.95;91.37;98175.44;3576580;81;43338;-27
2021/04/20 16:30:28;;;;;;;8.48;7.08;;;;;;;13.26;92.16;98169.05;3746459;78;43710;-27
2021/04/20 16:35:37;;;;;;;8.23;7.10;;;;;;;13.47;91.38;98174.27;3757193;77;44038;-27
2021/04/20 16:41:13;;;;;;;7.58;6.78;;;;;;;13.22;90.00;98167.76;3762402;78;43716;-26
2021/04/20 16:46:23;;;;;;;7.75;6.50;;;;;;;13.10;90.24;98178.70;3750263;78;44681;-26
2021/04/20 16:51:40;;;;;;;8.38;6.70;;;;;;;13.09;91.34;98167.55;3751390;78;43382;-25
2021/04/20 16:57:06;;;;;;;9.40;7.20;;;;;;;12.64;92.34;98169.59;3744266;78;44224;-26
2021/04/20 17:02:16;;;;;;;7.45;6.37;;;;;;;12.36;93.17;98171.17;3746485;78;44379;-28
2021/04/20 17:07:26;;;;;;;9.88;7.28;;;;;;;12.08;98.86;98171.17;3752020;78;42797;-26
2021/04/20 17:12:50;;;;;;;7.58;6.37;;;;;;;11.90;100.00;98162.44;3755745;78;43326;-26
2021/04/20 17:18:18;;;;;;;10.63;6.62;;;;;;;11.75;100.00;98167.25;3748124;78;43424;-26
2021/04/20 17:23:51;;;;;;;7.53;6.50;;;;;;;11.66;98.95;98166.92;3747735;78;43697;-26
2021/04/20 17:29:03;;;;;;;7.47;6.55;;;;;;;11.60;100.00;98159.02;3748470;78;44184;-26
2021/04/20 17:34:18;;;;;;;8.03;6.97;;;;;;;11.37;100.00;98157.08;3754535;77;43669;-26
2021/04/20 17:39:27;;;;;;;7.72;6.40;;;;;;;11.36;100.00;98154.04;3743941;78;44066;-26
2021/04/20 17:44:50;;;;;;;6.72;5.97;;;;;;;11.28;100.00;98144.63;3753911;77;44448;-26
2021/04/20 17:50:06;;;;;;;7.70;6.80;;;;;;;11.23;100.00;98146.50;3739926;78;44038;-27
2021/04/20 17:55:17;;;;;;;10.23;7.75;;;;;;;11.27;100.00;98152.91;3736381;78;43725;-26
2021/04/20 18:00:26;;;;;;;8.20;6.83;;;;;;;11.22;100.00;98156.13;3735849;78;44174;-26
2021/04/20 18:05:37;;;;;;;11.00;7.28;;;;;;;11.05;100.00;98158.84;3735856;78;44231;-26
2021/04/20 18:10:54;;;;;;;8.90;7.10;;;;;;;11.00;100.00;98159.02;3755126;78;43416;-26
2021/04/20 18:16:30;;;;;;;7.65;6.35;;;;;;;10.91;100.00;98168.95;3764612;78;43736;-26
2021/04/20 18:21:39;;;;;;;7.75;6.50;;;;;;;10.68;100.00;98177.72;3742742;78;69009;-25
2021/04/20 18:27:28;;;;;;;7.63;5.73;;;;;;;10.61;100.00;98180.25;3734620;78;43337;-26
2021/04/20 18:32:41;;;;;;;7.37;6.03;;;;;;;10.68;100.00;98176.38;3754248;78;43999;-25
2021/04/20 18:37:58;;;;;;;6.78;5.35;;;;;;;10.68;100.00;98181.77;3754018;78;43456;-26
2021/04/20 18:43:25;;;;;;;7.45;6.17;;;;;;;10.67;100.00;98192.20;3756701;77;43418;-26
2021/04/20 18:48:34;;;;;;;7.45;5.97;;;;;;;10.64;100.00;98191.21;3745739;78;43706;-26
2021/04/20 18:53:51;;;;;;;7.15;6.10;;;;;;;10.61;100.00;98192.88;3659137;79;42951;-26
2021/04/20 18:59:02;;;;;;;7.83;6.28;;;;;;;10.56;100.00;98194.73;3738869;79;43564;-26
2021/04/20 19:04:13;;;;;;;9.25;7.17;;;;;;;10.47;100.00;98203.30;3740124;78;44225;-26
2021/04/20 19:09:21;;;;;;;9.88;7.30;;;;;;;10.34;100.00;98206.95;3729489;78;44141;-26
2021/04/20 19:14:41;;;;;;;10.17;7.53;;;;;;;10.31;100.00;98219.38;3726632;77;44124;-26
2021/04/20 19:19:55;;;;;;;10.60;8.27;;;;;;;10.24;100.00;98220.55;3733862;78;44454;-26
2021/04/20 19:25:04;;;;;;;13.53;8.45;;;;;;;10.17;100.00;98217.66;3732167;79;43243;-26
2021/04/20 19:30:16;;;;;;;10.48;8.73;;;;;;;10.05;100.00;98222.17;3720897;78;43697;-26
2021/04/20 19:35:33;;;;;;;9.15;8.05;;;;;;;10.03;100.00;98223.70;3724845;78;43661;-26
2021/04/20 19:40:57;;;;;;;9.60;7.58;;;;;;;10.00;100.00;98230.73;3728861;78;44040;-24
2021/04/20 19:46:08;;;;;;;11.78;9.10;;;;;;;9.96;100.00;98223.98;3733180;78;43321;-28
2021/04/20 19:51:18;;;;;;;11.67;9.27;;;;;;;9.90;100.00;98224.13;3730828;78;75569;-29
2021/04/20 19:56:28;;;;;;;12.33;9.47;;;;;;;9.82;100.00;98220.90;3734956;78;44054;-29
2021/04/20 20:01:37;;;;;;;11.70;9.70;;;;;;;9.65;100.00;98225.87;3733855;79;76108;-28
2021/04/20 20:06:45;;;;;;;11.17;9.00;;;;;;;9.50;100.00;98228.33;3745559;77;43396;-28
2021/04/20 20:11:58;;;;;;;11.57;9.53;;;;;;;9.51;100.00;98218.74;3732458;78;43999;-27
2021/04/20 20:17:10;;;;;;;14.90;10.40;;;;;;;9.40;100.00;98220.36;3720646;79;43416;-28
2021/04/20 20:22:22;;;;;;;13.57;10.80;;;;;;;9.33;100.00;98218.80;3719002;79;43986;-27
2021/04/20 20:27:32;;;;;;;14.70;10.53;;;;;;;9.27;100.00;98213.21;3720947;78;77343;-30
2021/04/20 20:32:43;;;;;;;13.88;10.82;;;;;;;9.15;100.00;98209.95;3726259;78;44087;-28
2021/04/20 20:37:54;;;;;;;14.45;11.33;;;;;;;9.07;100.00;98204.02;3718460;79;44030;-29
2021/04/20 20:43:03;;;;;;;14.87;11.33;;;;;;;9.01;100.00;98198.77;3720388;77;44385;-28
2021/04/20 20:48:10;;;;;;;14.87;11.27;;;;;;;8.90;100.00;98197.68;3725890;79;77382;-28
2021/04/20 20:53:19;;;;;;;14.00;11.43;;;;;;;8.88;100.00;98205.88;3724715;79;44102;-28
2021/04/20 20:58:27;;;;;;;14.77;11.63;;;;;;;8.84;100.00;98203.18;3720173;79;43865;-28
2021/04/20 21:03:36;;;;;;;17.98;12.28;;;;;;;8.64;100.00;98208.70;3634651;80;43680;-28
2021/04/20 21:08:44;;;;;;;13.67;11.50;;;;;;;8.52;100.00;98205.94;3729090;78;77866;-28
2021/04/20 21:13:52;;;;;;;21.37;13.13;;;;;;;8.42;100.00;98205.97;3753641;77;43460;-28
2021/04/20 21:19:02;;;;;;;18.80;12.60;;;;;;;8.36;100.00;98199.85;3751437;78;44086;-28
2021/04/20 21:24:11;;;;;;;17.83;13.13;;;;;;;8.22;100.00;98194.52;3754559;78;43455;-27
2021/04/20 21:29:20;;;;;;;17.23;13.20;;;;;;;8.09;100.00;98200.75;3753915;77;44061;-27
2021/04/20 21:34:27;;;;;;;16.13;12.67;;;;;;;7.97;100.00;98194.77;3751725;78;44152;-27
2021/04/20 21:39:34;;;;;;;16.43;12.97;;;;;;;7.91;100.00;98193.53;3745423;78;44105;-27
2021/04/20 21:44:41;;;;;;;18.10;13.53;;;;;;;7.90;100.00;98199.88;3748302;78;77382;-27
2021/04/20 21:49:49;;;;;;;18.50;13.30;;;;;;;7.79;100.00;98194.21;3747330;78;43483;-27
2021/04/20 21:55:00;;;;;;;17.20;12.43;;;;;;;7.67;100.00;98198.94;3743403;78;43281;-27
2021/04/20 22:00:13;;;;;;;14.80;11.83;;;;;;;7.62;100.00;98194.50;3739799;79;43455;-27
2021/04/20 22:05:20;;;;;;;15.23;12.27;;;;;;;7.58;100.00;98199.84;3659105;80;43691;-27
2021/04/20 22:10:29;;;;;;;16.03;12.53;;;;;;;7.53;100.00;98204.27;3742031;78;43669;-27
2021/04/20 22:15:38;;;;;;;17.50;13.07;;;;;;;7.44;100.00;98201.65;3728393;79;43739;-27
2021/04/20 22:20:46;;;;;;;16.07;12.17;;;;;;;7.35;100.00;98205.53;3731107;78;43325;-28
2021/04/20 22:25:55;;;;;;;17.67;12.80;;;;;;;7.31;100.00;98202.81;3733211;79;43334;-28
2021/04/20 22:31:02;;;;;;;18.73;13.40;;;;;;;7.27;100.00;98201.41;3732792;79;43717;-28
2021/04/20 22:36:12;;;;;;;16.73;12.23;;;;;;;7.19;100.00;98206.15;3728198;79;77747;-28
2021/04/20 22:41:21;;;;;;;14.83;11.87;;;;;;;7.13;100.00;98204.06;3718304;79;44224;-28
2021/04/20 22:46:40;;;;;;;14.63;11.17;;;;;;;7.07;100.00;98205.97;3725238;78;43685;-28
2021/04/20 22:51:49;;;;;;;17.47;13.87;;;;;;;7.06;100.00;98210.49;3727970;78;44067;-28
2021/04/20 22:57:11;;;;;;;20.73;14.23;;;;;;;7.04;100.00;98209.79;3724456;79;44168;-28
2021/04/20 23:02:22;;;;;;;20.27;13.63;;;;;;;7.01;100.00;98218.10;3730681;79;43623;-28
2021/04/20 23:07:29;;;;;;;20.97;14.30;;;;;;;6.95;100.00;98209.31;3721818;78;43423;-28
2021/04/20 23:12:36;;;;;;;19.93;14.20;;;;;;;6.93;100.00;98212.15;3764323;77;44727;-28
2021/04/20 23:17:43;;;;;;;19.07;13.57;;;;;;;6.89;100.00;98212.55;3765560;78;44557;-28
2021/04/20 23:22:54;;;;;;;17.83;13.83;;;;;;;6.84;100.00;98210.81;3769891;78;44090;-28
2021/04/20 23:28:03;;;;;;;18.20;13.73;;;;;;;6.79;100.00;98215.26;3774818;77;43192;-28
2021/04/20 23:33:11;;;;;;;18.27;13.40;;;;;;;6.72;100.00;98212.30;3773175;78;43439;-27
2021/04/20 23:38:18;;;;;;;18.60;13.53;;;;;;;6.58;100.00;98211.38;3773438;78;43692;-28
2021/04/20 23:43:25;;;;;;;19.93;14.70;;;;;;;6.53;100.00;98205.59;3766195;77;43717;-27
2021/04/20 23:48:32;;;;;;;19.57;13.60;;;;;;;6.50;100.00;98201.89;3768601;78;43740;-27